Latest Weather Observations for Emerald

IDQ60801

Issued at 8:02 pm EST Tuesday 27 June 2017 (issued every 30 minutes, with the page automatically refreshed every 10 minutes)

About weather observations | Map of weather stations | Latest weather observations for QLD | Other Formats
Station Details ID: 035264 Name: EMERALD AIRPORT Lat: -23.57 Lon: 148.18 Height: 189.4 m
Data from the previous 72 hours. | See also: Recent months at Emerald
Date/Time
EST
Temp
°C
App
Temp
°C
Dew
Point
°C
Rel
Hum
%
Delta-T
°C
Wind Press
QNH
hPa
Press
MSL
hPa
Rain since
9am
mm
Dir  Spd
km/h
Gust
km/h
Spd
kts
Gust
kts
27/08:00pm 17.3 16.1 10.4 64 3.7 E 7 9 4 5 1021.9 - 0.0
27/07:30pm 18.2 16.8 11.0 63 3.9 ENE 9 9 5 5 1021.8 - 0.0
27/07:00pm 19.7 18.1 11.5 59 4.6 ENE 11 13 6 7 1021.6 - 0.0
27/06:30pm 20.5 18.7 10.9 54 5.3 ENE 11 13 6 7 1021.5 - 0.0
27/06:00pm 21.7 20.1 11.4 52 5.8 NE 11 15 6 8 1021.2 1021.0 0.0
27/05:30pm 22.9 20.9 11.6 49 6.4 NE 13 17 7 9 1021.1 - 0.0
27/05:00pm 23.7 21.8 11.7 47 6.8 NE 13 17 7 9 1020.8 - 0.0
27/04:30pm 24.3 21.2 11.6 45 7.2 ENE 19 24 10 13 1020.4 - 0.0
27/04:00pm 25.5 22.3 12.0 43 7.8 ENE 20 28 11 15 1020.3 - 0.0
27/03:30pm 25.5 22.1 11.3 41 8.1 ENE 20 28 11 15 1020.2 - 0.0
27/03:00pm 25.7 22.4 11.5 41 8.1 ENE 20 30 11 16 1020.2 1019.9 0.0
27/02:30pm 25.6 22.0 10.6 39 8.5 E 20 32 11 17 1020.3 - 0.0
27/02:00pm 26.1 22.5 10.7 38 8.7 E 20 28 11 15 1020.4 - 0.0
27/01:30pm 26.1 22.9 11.4 39 8.4 ENE 19 26 10 14 1020.5 - 0.0
27/01:00pm 25.5 24.3 12.7 45 7.5 NE 11 20 6 11 1021.0 - 0.0
27/12:30pm 24.1 22.8 13.6 52 6.2 E 13 20 7 11 1021.6 - 0.0
27/12:00pm 23.8 22.4 13.4 52 6.1 NE 13 20 7 11 1022.1 1021.9 0.0
27/11:30am 23.6 22.3 13.8 54 5.8 ENE 13 20 7 11 1022.5 - 0.0
27/11:00am 22.5 21.7 14.1 59 5.0 ENE 11 17 6 9 1022.7 - 0.0
27/10:30am 21.3 20.3 14.5 65 4.0 E 13 20 7 11 1023.1 - 0.0
27/10:00am 20.1 19.2 13.8 67 3.7 E 11 15 6 8 1023.5 - 0.0
27/09:30am 18.9 18.2 13.3 70 3.2 E 9 13 5 7 1023.6 - 0.0
27/09:00am 17.6 16.6 13.3 76 2.4 E 11 13 6 7 1023.3 1023.1 0.0
27/08:57am 17.6 16.9 13.3 76 2.4 E 9 13 5 7 1023.3 - 0.0
27/08:30am 16.3 15.3 13.4 83 1.6 ESE 11 13 6 7 1023.2 - 0.0
27/08:07am 14.0 13.5 12.0 88 1.1 SSE 6 7 3 4 1023.0 - 0.0
27/08:00am 13.6 13.0 11.8 89 1.0 SE 6 7 3 4 1023.0 - 0.0
27/07:30am 11.5 10.4 10.7 95 0.4 SSE 7 9 4 5 1022.7 - 0.0
27/07:00am 9.8 8.1 8.4 91 0.7 S 7 7 4 4 1022.6 - 0.0
27/06:30am 10.2 8.8 9.0 92 0.6 ESE 6 7 3 4 1022.1 - 0.0
27/06:00am 10.0 8.3 8.4 90 0.8 ESE 7 9 4 5 1021.9 1021.7 0.0
27/05:30am 10.4 10.1 8.7 89 0.8 CALM 0 0 0 0 1021.7 - 0.0
27/05:00am 10.2 9.7 8.0 86 1.1 CALM 0 0 0 0 1021.6 - 0.0
27/04:30am 11.3 10.9 8.3 82 1.5 CALM 0 0 0 0 1021.3 - 0.0
27/04:00am 11.3 10.9 8.2 81 1.5 CALM 0 6 0 3 1021.2 - 0.0
27/03:30am 12.3 11.8 8.0 75 2.1 CALM 0 0 0 0 1021.1 - 0.0
27/03:00am 12.3 11.9 8.4 77 1.9 CALM 0 0 0 0 1021.0 1020.8 0.0
27/02:30am 11.8 10.0 7.9 77 1.9 ESE 7 7 4 4 1021.0 - 0.0
27/02:00am 11.6 9.9 8.3 80 1.6 E 7 9 4 5 1020.9 - 0.0
27/01:30am 13.1 12.8 8.8 75 2.2 CALM 0 0 0 0 1021.2 - 0.0
27/01:00am 13.1 12.0 8.4 73 2.4 SSW 4 7 2 4 1021.5 - 0.0
27/12:30am 13.9 13.6 8.5 70 2.7 CALM 0 0 0 0 1021.3 - 0.0
27/12:00am 13.1 12.6 7.8 70 2.6 CALM 0 0 0 0 1021.3 1021.1 0.0
 
Date/Time
EST
Temp
°C
App
Temp
°C
Dew
Point
°C
Rel
Hum
%
Delta-T
°C
Wind Press
QNH
hPa
Press
MSL
hPa
Rain since
9am
mm
Dir  Spd
km/h
Gust
km/h
Spd
kts
Gust
kts
26/11:30pm 13.8 13.3 8.0 68 2.9 CALM 0 0 0 0 1021.2 - 0.0
26/11:00pm 14.4 13.1 7.7 64 3.3 N 4 7 2 4 1021.3 - 0.0
26/10:30pm 15.0 13.5 8.5 65 3.3 ENE 6 7 3 4 1021.3 - 0.0
26/10:00pm 15.0 13.3 8.5 65 3.3 E 7 7 4 4 1021.3 - 0.0
26/09:30pm 15.6 14.0 8.1 61 3.8 ESE 6 7 3 4 1021.3 - 0.0
26/09:00pm 16.5 14.9 8.0 57 4.3 E 6 7 3 4 1021.2 1021.0 0.0
26/08:30pm 16.6 15.0 8.1 57 4.3 E 6 6 3 3 1021.0 - 0.0
26/08:00pm 17.1 15.4 8.5 57 4.4 ESE 7 7 4 4 1020.8 - 0.0
26/07:30pm 18.7 18.3 8.4 51 5.4 CALM 0 0 0 0 1020.7 - 0.0
26/07:00pm 19.5 17.9 8.2 48 5.9 E 6 7 3 4 1020.3 - 0.0
26/06:30pm 20.4 18.6 8.1 45 6.4 E 7 7 4 4 1019.9 - 0.0
26/06:00pm 21.2 19.6 8.8 45 6.6 E 7 9 4 5 1019.5 1019.2 0.0
26/05:30pm 22.4 20.0 8.5 41 7.4 ENE 11 15 6 8 1019.1 - 0.0
26/05:00pm 25.0 22.1 8.1 34 9.1 E 13 17 7 9 1019.0 - 0.0
26/04:30pm 26.4 24.8 7.9 31 10.0 E 6 11 3 6 1019.1 - 0.0
26/04:00pm 26.8 25.3 8.3 31 10.1 N 6 9 3 5 1019.0 - 0.0
26/03:30pm 26.7 24.6 8.2 31 10.1 NNE 9 17 5 9 1018.9 - 0.0
26/03:00pm 26.5 22.8 8.0 31 10.0 NNE 17 20 9 11 1018.8 1018.6 0.0
26/02:30pm 26.6 24.6 8.6 32 9.9 E 9 17 5 9 1019.0 - 0.0
26/02:00pm 26.3 24.7 8.8 33 9.6 NNE 7 15 4 8 1019.1 - 0.0
26/01:30pm 26.4 24.3 9.7 35 9.3 ENE 11 17 6 9 1019.6 - 0.0
26/01:00pm 24.9 22.9 8.8 36 8.8 ENE 9 17 5 9 1020.1 - 0.0
26/12:30pm 25.0 22.7 8.9 36 8.8 E 11 17 6 9 1020.6 - 0.0
26/12:00pm 24.3 23.1 9.5 39 8.1 ENE 6 15 3 8 1021.1 1020.9 0.0
26/11:30am 23.8 22.5 9.8 41 7.7 NNE 7 13 4 7 1021.4 - 0.0
26/11:00am 22.9 21.7 9.7 43 7.2 NE 6 13 3 7 1021.6 - 0.0
26/10:30am 21.7 20.6 10.5 49 6.2 NNE 7 13 4 7 1021.9 - 0.0
26/10:00am 20.6 19.9 12.1 58 4.8 NNE 7 13 4 7 1022.1 - 0.0
26/09:30am 18.9 18.4 12.2 65 3.8 NNE 6 7 3 4 1022.0 - 0.0
26/09:00am 17.6 17.0 11.8 69 3.2 ENE 6 7 3 4 1021.9 1021.7 0.0
26/08:30am 15.7 14.7 10.9 73 2.6 E 7 9 4 5 1021.6 - 0.0
26/08:00am 13.3 12.5 9.5 78 2.0 ESE 4 7 2 4 1021.2 - 0.0
26/07:30am 10.7 8.6 8.1 84 1.3 S 9 11 5 6 1021.2 - 0.0
26/07:00am 9.4 7.0 7.2 86 1.0 S 9 11 5 6 1020.8 - 0.0
26/06:30am 8.9 7.5 5.6 80 1.5 SSE 2 6 1 3 1020.2 - 0.0
26/06:00am 9.7 8.8 5.9 77 1.8 CALM 0 0 0 0 1019.6 1019.3 0.0
26/05:30am 9.8 8.6 6.3 79 1.6 SE 2 6 1 3 1019.5 - 0.0
26/05:00am 9.7 7.1 6.1 78 1.7 SE 9 11 5 6 1019.3 - 0.0
26/04:30am 10.1 7.5 6.1 76 1.9 SSE 9 9 5 5 1019.4 - 0.0
26/04:00am 9.9 7.3 6.1 77 1.8 SSE 9 11 5 6 1019.4 - 0.0
26/03:30am 10.5 8.6 5.1 69 2.5 SSE 4 7 2 4 1019.0 - 0.0
26/03:00am 11.3 10.3 5.4 67 2.7 CALM 0 0 0 0 1018.9 1018.7 0.0
26/02:30am 10.9 9.9 5.7 70 2.4 CALM 0 0 0 0 1018.9 - 0.0
26/02:00am 10.4 9.5 6.2 75 2.0 CALM 0 0 0 0 1018.9 - 0.0
26/01:30am 11.2 10.3 6.1 71 2.4 CALM 0 0 0 0 1018.9 - 0.0
26/01:00am 12.6 11.7 6.0 64 3.1 CALM 0 0 0 0 1019.0 - 0.0
26/12:30am 12.5 11.6 5.9 64 3.1 CALM 0 0 0 0 1019.1 - 0.0
26/12:00am 12.4 10.3 5.6 63 3.2 ESE 6 7 3 4 1019.3 1019.0 0.0
 
Date/Time
EST
Temp
°C
App
Temp
°C
Dew
Point
°C
Rel
Hum
%
Delta-T
°C
Wind Press
QNH
hPa
Press
MSL
hPa
Rain since
9am
mm
Dir  Spd
km/h
Gust
km/h
Spd
kts
Gust
kts
25/11:30pm 12.5 11.2 6.1 65 3.1 ENE 2 7 1 4 1019.3 - 0.0
25/11:00pm 13.2 12.6 7.2 67 2.9 CALM 0 0 0 0 1019.3 - 0.0
25/10:30pm 13.3 12.7 7.3 67 3.0 CALM 0 0 0 0 1019.3 - 0.0
25/10:00pm 14.2 13.5 6.8 61 3.6 CALM 0 0 0 0 1019.6 - 0.0
25/09:30pm 14.3 12.8 6.6 60 3.8 NE 4 7 2 4 1019.5 - 0.0
25/09:00pm 13.9 12.2 5.8 58 3.9 SSE 4 7 2 4 1019.3 1019.0 0.0
25/08:30pm 15.2 14.4 6.7 57 4.2 CALM 0 0 0 0 1018.9 - 0.0
25/08:00pm 15.1 12.9 6.4 56 4.3 E 7 9 4 5 1018.8 - 0.0
25/07:30pm 17.9 17.0 6.1 46 5.9 CALM 0 0 0 0 1018.3 - 0.0
25/07:00pm 18.3 16.1 5.5 43 6.3 SSW 6 7 3 4 1018.2 - 0.0
25/06:30pm 19.6 17.5 6.0 41 6.8 SSE 6 6 3 3 1017.7 - 0.0
25/06:00pm 21.1 19.1 6.2 38 7.5 ESE 6 7 3 4 1017.6 1017.4 0.0
25/05:30pm 23.1 20.9 6.4 34 8.6 SSE 7 9 4 5 1017.4 - 0.0
25/05:00pm 24.4 22.3 6.6 32 9.3 ESE 7 7 4 4 1017.3 - 0.0
25/04:30pm 25.5 22.9 6.2 29 10.1 SSW 9 11 5 6 1017.3 - 0.0
25/04:00pm 25.9 23.8 6.0 28 10.4 W 6 13 3 7 1017.0 - 0.0
25/03:30pm 25.6 22.3 6.3 29 10.1 ESE 13 19 7 10 1017.0 - 0.0
25/03:00pm 26.1 23.6 6.7 29 10.2 N 9 13 5 7 1017.0 1016.8 0.0
25/02:30pm 26.1 24.7 7.2 30 10.1 N 4 7 2 4 1017.3 - 0.0
25/02:00pm 25.8 23.9 7.4 31 9.8 ENE 7 13 4 7 1017.4 - 0.0
25/01:30pm 25.4 23.5 7.5 32 9.5 SSE 7 15 4 8 1017.7 - 0.0
25/01:00pm 25.1 22.8 7.3 32 9.4 NNE 9 15 5 8 1018.1 - 0.0
25/12:30pm 24.8 23.0 7.9 34 9.0 NE 7 19 4 10 1018.6 - 0.0
25/12:00pm 23.8 22.0 7.8 36 8.5 E 7 11 4 6 1018.9 1018.7 0.0
25/11:30am 24.1 22.4 8.5 37 8.4 ESE 7 17 4 9 1019.6 - 0.0
25/11:00am 23.1 21.8 9.1 41 7.6 W 6 9 3 5 1020.0 - 0.0
25/10:30am 21.9 20.7 9.4 45 6.8 NW 6 9 3 5 1020.3 - 0.0
25/10:00am 20.4 18.6 9.6 50 5.8 SW 9 13 5 7 1020.7 - 0.0
25/09:30am 18.8 17.3 9.0 53 5.2 SSE 7 9 4 5 1020.6 - 0.0
25/09:00am 16.7 14.8 8.9 60 4.0 S 9 13 5 7 1020.8 1020.6 0.0
25/08:30am 14.5 12.5 8.7 68 3.0 SSE 9 11 5 6 1020.3 - 0.0
25/08:00am 12.2 10.5 8.5 78 1.9 SSE 7 9 4 5 1019.9 - 0.0
25/07:30am 10.2 8.7 8.3 88 0.9 SSE 6 7 3 4 1019.4 - 0.0
25/07:00am 8.2 6.2 6.3 88 0.9 SE 6 6 3 3 1019.0 - 0.0
25/06:30am 9.2 7.7 7.0 86 1.0 S 4 6 2 3 1018.6 - 0.0
25/06:00am 9.3 7.3 7.1 86 1.0 SSW 7 9 4 5 1018.7 1018.5 0.0
25/05:30am 9.9 7.9 7.2 83 1.3 WSW 7 9 4 5 1018.3 - 0.0
25/05:00am 9.9 7.9 7.3 84 1.2 S 7 9 4 5 1018.1 - 0.0
25/04:30am 9.7 7.8 7.5 86 1.1 S 7 9 4 5 1018.2 - 0.0
25/04:00am 9.2 6.8 7.2 87 1.0 SSE 9 11 5 6 1018.3 - 0.0
25/03:30am 9.6 8.8 6.5 81 1.5 CALM 0 6 0 3 1018.4 - 0.0
25/03:00am 10.8 9.6 7.9 82 1.4 W 4 7 2 4 1018.3 1018.1 0.0
25/02:30am 10.8 10.2 7.3 79 1.7 CALM 0 4 0 2 1018.1 - 0.0
25/02:00am 11.1 10.4 7.0 76 2.0 CALM 0 0 0 0 1018.4 - 0.0
25/01:30am 11.8 11.1 7.1 73 2.3 CALM 0 0 0 0 1018.5 - 0.0
25/01:00am 11.6 10.0 6.5 71 2.4 ENE 4 7 2 4 1018.6 - 0.0
25/12:30am 11.8 11.2 7.3 74 2.2 CALM 0 0 0 0 1018.7 - 0.0
25/12:00am 11.8 11.0 6.7 71 2.4 CALM 0 0 0 0 1018.9 1018.7 0.0
 
Date/Time
EST
Temp
°C
App
Temp
°C
Dew
Point
°C
Rel
Hum
%
Delta-T
°C
Wind Press
QNH
hPa
Press
MSL
hPa
Rain since
9am
mm
Dir  Spd
km/h
Gust
km/h
Spd
kts
Gust
kts
24/11:30pm 13.3 11.5 7.3 67 3.0 W 6 7 3 4 1018.9 - 0.0
24/11:00pm 14.3 12.9 7.4 63 3.4 N 4 6 2 3 1018.7 - 0.0
24/10:30pm 14.6 12.7 7.6 63 3.5 NNE 7 9 4 5 1018.8 - 0.0
24/10:00pm 13.9 12.0 7.4 65 3.2 NE 7 9 4 5 1018.8 - 0.0
24/09:30pm 14.8 12.5 7.4 61 3.7 NE 9 11 5 6 1018.8 - 0.0
24/09:00pm 14.4 13.6 6.7 60 3.8 CALM 0 0 0 0 1018.5 1018.3 0.0
24/08:30pm 15.7 14.8 7.7 59 4.0 SW 2 6 1 3 1018.3 - 0.0

Other Formats:

Comma delimited format used in spreadsheet applications
http://www.bom.gov.au/fwo/IDQ60801/IDQ60801.94363.axf

JavaScript Object Notation format (JSON) in row-major order
http://www.bom.gov.au/fwo/IDQ60801/IDQ60801.94363.json